Time;durP1;ratioP1;P1;durP2;ratioP2;P2;SDS_P1;SDS_P2;PMS_P1;PMS_P2;Temp;Humidity;BMP_temperature;BMP_pressure;BME280_temperature;BME280_humidity;BME280_pressure;Samples;Min_cycle;Max_cycle;Signal;HPM_P1;HPM_P2
2023/03/23 00:02:02;;;;;;;9.95;7.40;;;;;;;9.71;85.00;95533.19;4951191;29;20027;-71
2023/03/23 00:04:29;;;;;;;13.90;6.10;;;;;;;9.77;84.03;95537.91;4953296;29;20063;-71
2023/03/23 00:06:54;;;;;;;10.15;5.90;;;;;;;9.76;85.54;95544.13;4931425;29;20121;-71
2023/03/23 00:09:23;;;;;;;7.03;5.18;;;;;;;9.79;84.49;95537.75;4944418;29;20088;-71
2023/03/23 00:11:50;;;;;;;8.07;6.30;;;;;;;9.77;85.45;95540.53;4951848;29;20046;-71
2023/03/23 00:14:16;;;;;;;11.32;6.45;;;;;;;9.81;85.21;95541.06;4953051;29;20444;-71
2023/03/23 00:16:42;;;;;;;8.60;6.38;;;;;;;9.80;84.64;95544.66;4953531;29;20125;-71
2023/03/23 00:19:14;;;;;;;6.20;5.60;;;;;;;9.80;84.79;95536.78;4949430;29;20039;-71
2023/03/23 00:21:41;;;;;;;11.32;6.03;;;;;;;9.83;84.24;95541.75;4936248;29;20387;-72
2023/03/23 00:24:18;;;;;;;11.65;5.35;;;;;;;9.84;85.31;95543.44;4953553;29;20031;-71
2023/03/23 00:26:45;;;;;;;8.30;5.22;;;;;;;9.86;84.71;95541.50;4952407;29;20051;-72
2023/03/23 00:29:20;;;;;;;7.15;4.68;;;;;;;9.89;84.78;95546.47;4954571;29;20035;-71
2023/03/23 00:31:47;;;;;;;8.38;4.93;;;;;;;9.92;84.01;95545.31;4951697;29;20191;-71
2023/03/23 00:34:18;;;;;;;7.10;4.80;;;;;;;9.90;84.23;95553.38;4949755;29;20046;-72
2023/03/23 00:36:44;;;;;;;7.18;4.97;;;;;;;9.89;85.47;95554.34;4952108;29;20035;-72
2023/03/23 00:39:10;;;;;;;6.03;5.43;;;;;;;9.85;85.89;95548.53;4953059;29;20500;-72
2023/03/23 00:41:36;;;;;;;7.38;4.75;;;;;;;9.82;86.49;95554.06;4949508;29;20023;-72
2023/03/23 00:44:02;;;;;;;9.00;4.95;;;;;;;9.82;85.82;95555.84;4944581;29;20035;-72
2023/03/23 00:46:28;;;;;;;9.55;5.28;;;;;;;9.83;85.78;95561.00;4931199;29;20087;-72
2023/03/23 00:48:54;;;;;;;7.28;4.95;;;;;;;9.84;86.25;95561.84;4949761;29;20142;-72
2023/03/23 00:51:20;;;;;;;9.95;5.50;;;;;;;9.81;87.38;95557.69;4945389;29;20044;-72
2023/03/23 00:53:46;;;;;;;5.10;4.60;;;;;;;9.79;87.20;95556.16;4948821;29;20040;-71
2023/03/23 00:56:12;;;;;;;6.18;4.30;;;;;;;9.86;86.71;95554.63;4936134;29;20031;-71
2023/03/23 00:58:37;;;;;;;5.85;4.13;;;;;;;9.88;86.42;95561.38;4949154;29;20069;-71
2023/03/23 01:01:03;;;;;;;7.15;4.28;;;;;;;9.82;86.68;95558.50;4946921;29;20035;-71
2023/03/23 01:03:29;;;;;;;4.75;4.30;;;;;;;9.82;87.62;95558.50;4927118;29;20027;-71
2023/03/23 01:05:55;;;;;;;7.97;4.32;;;;;;;9.83;86.94;95560.16;4944818;29;20480;-71
2023/03/23 01:08:21;;;;;;;5.72;4.78;;;;;;;9.76;89.28;95559.91;4954567;29;20530;-73
2023/03/23 01:10:47;;;;;;;8.50;5.63;;;;;;;9.74;88.58;95557.41;4948812;29;20420;-71
2023/03/23 01:13:13;;;;;;;6.38;4.68;;;;;;;9.74;89.01;95554.78;4942869;29;20035;-72
2023/03/23 01:15:39;;;;;;;5.65;4.95;;;;;;;9.76;88.33;95559.91;4950322;29;20079;-72
2023/03/23 01:18:05;;;;;;;4.78;4.20;;;;;;;9.72;89.24;95554.09;4950651;29;20039;-72
2023/03/23 01:20:32;;;;;;;4.38;3.75;;;;;;;9.72;88.96;95551.47;4947313;29;20039;-72
2023/03/23 01:23:00;;;;;;;6.25;4.50;;;;;;;9.80;88.20;95550.75;4948130;29;20087;-72
2023/03/23 01:25:30;;;;;;;5.13;4.22;;;;;;;9.84;88.26;95548.69;4951302;29;20399;-72
2023/03/23 01:27:57;;;;;;;4.40;4.00;;;;;;;9.91;87.45;95548.94;4950814;29;20027;-71
2023/03/23 01:30:23;;;;;;;3.92;3.20;;;;;;;9.86;86.74;95549.38;4951001;28;20027;-72
2023/03/23 01:32:49;;;;;;;4.95;3.83;;;;;;;9.87;86.76;95546.59;4951844;29;20054;-72
2023/03/23 01:35:14;;;;;;;5.28;3.95;;;;;;;9.97;86.41;95551.03;4956305;29;20038;-73
2023/03/23 01:37:40;;;;;;;7.22;3.63;;;;;;;9.98;86.48;95552.69;4955511;29;20098;-72
2023/03/23 01:40:06;;;;;;;7.20;4.20;;;;;;;9.85;88.16;95547.72;4954396;29;20027;-73
2023/03/23 01:42:35;;;;;;;4.70;3.13;;;;;;;9.86;87.81;95552.00;4951350;29;20031;-72
2023/03/23 01:45:22;;;;;;;7.00;3.70;;;;;;;9.79;89.96;95546.47;4944786;29;20413;-72
2023/03/23 01:47:52;;;;;;;5.10;3.60;;;;;;;9.73;90.26;95545.22;4954181;29;20066;-72
2023/03/23 01:50:22;;;;;;;4.10;3.70;;;;;;;9.71;90.16;95539.28;4950805;29;20487;-72
2023/03/23 01:52:48;;;;;;;4.97;3.50;;;;;;;9.77;88.73;95537.91;4953475;28;20412;-72
2023/03/23 01:55:15;;;;;;;4.60;3.63;;;;;;;9.79;88.15;95532.47;4933628;29;20578;-72
2023/03/23 01:57:41;;;;;;;3.47;3.17;;;;;;;9.81;88.19;95531.38;4951429;29;20687;-73
2023/03/23 02:00:14;;;;;;;5.53;3.30;;;;;;;9.89;88.08;95525.41;4959273;29;20035;-71
2023/03/23 02:02:40;;;;;;;7.07;3.50;;;;;;;9.94;88.65;95522.34;4950414;29;20034;-73
2023/03/23 02:05:11;;;;;;;4.28;3.63;;;;;;;9.86;90.16;95515.19;4951979;29;20027;-72
2023/03/23 02:07:37;;;;;;;9.57;3.38;;;;;;;9.80;90.10;95513.94;4951956;29;20091;-72
2023/03/23 02:10:03;;;;;;;6.43;4.40;;;;;;;9.75;90.58;95511.75;4951111;29;20054;-72
2023/03/23 02:12:28;;;;;;;3.90;3.60;;;;;;;9.77;91.11;95508.97;4954724;29;20414;-73
2023/03/23 02:14:54;;;;;;;6.15;3.78;;;;;;;9.80;90.90;95515.72;4955008;29;20117;-72
2023/03/23 02:17:25;;;;;;;7.88;4.10;;;;;;;9.77;91.84;95510.75;4951705;29;20101;-73
2023/03/23 02:20:13;;;;;;;11.80;4.20;;;;;;;9.75;93.10;95503.84;4950373;29;20448;-72
2023/03/23 02:23:08;;;;;;;6.43;3.90;;;;;;;9.76;92.26;95507.31;4953028;29;20445;-73
2023/03/23 02:25:58;;;;;;;7.45;3.70;;;;;;;9.77;92.04;95500.25;4957364;29;20027;-72
2023/03/23 02:28:42;;;;;;;7.85;3.88;;;;;;;9.75;91.71;95500.41;4947529;29;20118;-73
2023/03/23 02:31:51;;;;;;;4.05;3.60;;;;;;;9.72;92.62;95493.63;4952026;29;20039;-73
2023/03/23 02:34:27;;;;;;;7.75;3.58;;;;;;;9.76;91.02;95491.56;4922720;29;20051;-73
2023/03/23 02:36:59;;;;;;;7.50;3.47;;;;;;;9.79;90.90;95486.00;4948002;29;20035;-73
2023/03/23 02:39:40;;;;;;;4.63;3.65;;;;;;;9.81;91.12;95489.31;4950664;29;20168;-72
2023/03/23 02:42:08;;;;;;;5.72;3.83;;;;;;;9.83;91.21;95478.63;4951134;28;20035;-73
2023/03/23 02:44:40;;;;;;;4.60;3.53;;;;;;;9.82;91.17;95480.44;4950798;28;20027;-73
2023/03/23 02:47:11;;;;;;;7.78;3.72;;;;;;;9.81;90.45;95480.59;4951015;29;20055;-73
2023/03/23 02:49:40;;;;;;;4.60;3.50;;;;;;;9.82;90.35;95471.72;4952589;29;20050;-73
2023/03/23 02:52:14;;;;;;;3.50;3.20;;;;;;;9.82;90.59;95474.34;4952855;29;20035;-72
2023/03/23 02:54:42;;;;;;;5.47;3.58;;;;;;;9.82;90.94;95472.56;4949329;29;20027;-72
2023/03/23 02:57:08;;;;;;;5.40;3.50;;;;;;;9.80;91.18;95465.78;4956072;29;20444;-72
2023/03/23 02:59:34;;;;;;;4.93;3.13;;;;;;;9.81;90.11;95463.03;4947000;29;20039;-72
2023/03/23 03:02:02;;;;;;;4.38;2.88;;;;;;;9.82;89.52;95466.47;4948096;29;20031;-72
2023/03/23 03:04:30;;;;;;;3.33;2.83;;;;;;;9.83;88.95;95458.44;4945996;29;20053;-72
2023/03/23 03:07:28;;;;;;;8.70;4.63;;;;;;;9.83;90.11;95462.88;4954767;28;20129;-72
2023/03/23 03:10:04;;;;;;;9.02;6.63;;;;;;;9.77;90.21;95461.66;4951338;29;20602;-72
2023/03/23 03:12:41;;;;;;;6.60;4.70;;;;;;;9.79;89.04;95461.50;4958440;29;20110;-71
2023/03/23 03:15:07;;;;;;;7.00;4.40;;;;;;;9.80;89.15;95455.25;4951858;29;20027;-72
2023/03/23 03:17:36;;;;;;;5.15;4.20;;;;;;;9.78;89.58;95459.84;4953327;29;20090;-72
2023/03/23 03:20:07;;;;;;;7.88;4.38;;;;;;;9.78;89.48;95457.22;4948751;29;20059;-72
2023/03/23 03:22:37;;;;;;;5.13;4.10;;;;;;;9.81;88.17;95451.66;4938381;29;20035;-72
2023/03/23 03:25:03;;;;;;;6.03;3.90;;;;;;;9.85;87.01;95448.63;4952598;28;20068;-72
2023/03/23 03:27:31;;;;;;;5.10;4.03;;;;;;;9.85;86.78;95453.88;4953911;29;20031;-72
2023/03/23 03:29:59;;;;;;;9.95;3.65;;;;;;;9.97;85.93;95445.81;4949947;29;20488;-72
2023/03/23 03:32:31;;;;;;;6.45;4.20;;;;;;;10.09;85.16;95451.72;4952999;29;20039;-72
2023/03/23 03:35:00;;;;;;;5.70;2.92;;;;;;;9.99;86.72;95455.19;4948846;29;20039;-71
2023/03/23 03:37:26;;;;;;;4.50;3.03;;;;;;;10.04;88.50;95460.03;4950290;29;20031;-71
2023/03/23 03:39:52;;;;;;;7.03;3.15;;;;;;;10.10;87.50;95454.19;4937503;29;20102;-71
2023/03/23 03:42:17;;;;;;;4.72;2.78;;;;;;;10.01;87.21;95461.16;4938130;29;20035;-72
2023/03/23 03:44:43;;;;;;;3.22;2.70;;;;;;;10.00;87.36;95451.59;4948782;29;20464;-72
2023/03/23 03:47:08;;;;;;;4.68;2.92;;;;;;;9.89;87.99;95459.69;4949734;29;20075;-72
2023/03/23 03:49:33;;;;;;;5.38;2.92;;;;;;;9.85;87.57;95464.38;4948006;29;20039;-73
2023/03/23 03:51:59;;;;;;;4.25;3.83;;;;;;;10.01;85.42;95462.97;4945736;29;20064;-72
2023/03/23 03:54:24;;;;;;;4.75;2.90;;;;;;;9.89;85.68;95459.69;4950208;28;20445;-72
2023/03/23 03:56:51;;;;;;;5.93;3.22;;;;;;;9.74;86.92;95460.13;4952721;29;20061;-72
2023/03/23 03:59:17;;;;;;;3.47;3.00;;;;;;;9.70;87.64;95453.50;4945133;29;20034;-72
2023/03/23 04:01:42;;;;;;;5.18;2.72;;;;;;;9.71;87.21;95459.56;4951687;29;20028;-72
2023/03/23 04:04:08;;;;;;;7.18;3.10;;;;;;;9.69;86.88;95458.88;4951156;29;20110;-72
2023/03/23 04:06:35;;;;;;;3.60;3.28;;;;;;;9.68;87.07;95450.19;4951360;29;20020;-72
2023/03/23 04:09:05;;;;;;;3.35;3.05;;;;;;;9.65;88.02;95452.25;4948312;29;20035;-72
2023/03/23 04:11:32;;;;;;;4.63;2.92;;;;;;;9.68;87.37;95454.59;4950110;29;20047;-73
2023/03/23 04:13:57;;;;;;;5.50;3.10;;;;;;;9.69;87.17;95446.59;4946443;29;20918;-72
2023/03/23 04:16:23;;;;;;;3.28;2.90;;;;;;;9.72;87.03;95448.94;4956847;29;20499;-72
2023/03/23 04:18:49;;;;;;;4.30;3.22;;;;;;;9.65;87.97;95445.22;4956378;29;20403;-72
2023/03/23 04:21:15;;;;;;;6.70;5.10;;;;;;;9.59;88.59;95443.13;4950348;29;20099;-72
2023/03/23 04:23:41;;;;;;;7.25;3.88;;;;;;;9.59;89.07;95427.38;4947334;29;20052;-72
2023/03/23 04:26:07;;;;;;;6.75;3.60;;;;;;;9.59;89.70;95441.34;4945860;29;20439;-71
2023/03/23 04:28:33;;;;;;;6.30;2.97;;;;;;;9.57;88.57;95435.41;4951625;29;20033;-72
2023/03/23 04:31:00;;;;;;;5.10;3.63;;;;;;;9.57;88.12;95434.56;4952166;29;20472;-72
2023/03/23 04:33:28;;;;;;;5.32;3.83;;;;;;;9.60;88.20;95445.63;4947020;29;20053;-71
2023/03/23 04:35:56;;;;;;;4.90;4.25;;;;;;;9.58;88.60;95438.84;4956287;29;20024;-71
2023/03/23 04:38:24;;;;;;;4.55;3.60;;;;;;;9.64;87.49;95435.69;4946753;29;20083;-71
2023/03/23 04:40:51;;;;;;;6.70;3.75;;;;;;;9.62;87.42;95427.13;4944582;29;20086;-72
2023/03/23 04:43:21;;;;;;;5.90;3.70;;;;;;;9.59;87.89;95432.63;4954397;29;20042;-72
2023/03/23 04:45:47;;;;;;;4.35;3.45;;;;;;;9.50;88.78;95431.69;4949910;29;20066;-72
2023/03/23 04:48:13;;;;;;;3.88;3.22;;;;;;;9.42;90.20;95442.91;4950365;29;20043;-71
2023/03/23 04:50:39;;;;;;;4.47;3.45;;;;;;;9.44;89.16;95440.97;4945074;29;20027;-71
2023/03/23 04:53:05;;;;;;;3.30;3.00;;;;;;;9.51;88.09;95433.38;4951763;29;20042;-72
2023/03/23 04:55:35;;;;;;;4.55;3.10;;;;;;;9.49;88.72;95437.91;4950481;29;20035;-71
2023/03/23 04:58:02;;;;;;;8.20;3.25;;;;;;;9.45;88.92;95432.13;4949082;29;20556;-72
2023/03/23 05:00:27;;;;;;;4.40;3.83;;;;;;;9.46;88.63;95438.19;4950998;28;20028;-72
2023/03/23 05:02:55;;;;;;;4.65;3.90;;;;;;;9.46;89.50;95443.44;4947218;29;20480;-70
2023/03/23 05:05:22;;;;;;;6.38;3.75;;;;;;;9.44;90.26;95446.22;4952779;28;20083;-72
2023/03/23 05:07:48;;;;;;;4.55;4.15;;;;;;;9.44;90.24;95443.59;4947315;29;20051;-70
2023/03/23 05:10:15;;;;;;;4.57;4.10;;;;;;;9.40;90.55;95458.00;4948126;29;20106;-73
2023/03/23 05:12:41;;;;;;;7.90;4.15;;;;;;;9.41;90.26;95459.66;4949490;29;20059;-72
2023/03/23 05:15:08;;;;;;;6.50;4.43;;;;;;;9.40;90.00;95455.38;4949888;29;20038;-73
2023/03/23 05:17:35;;;;;;;8.07;4.97;;;;;;;9.41;89.72;95458.81;4952441;29;20023;-72
2023/03/23 05:20:04;;;;;;;6.78;4.80;;;;;;;9.42;89.61;95450.81;4938572;29;20031;-73
2023/03/23 05:22:32;;;;;;;7.22;4.63;;;;;;;9.41;90.90;95451.78;4945825;29;20067;-72
2023/03/23 05:24:58;;;;;;;5.70;4.45;;;;;;;9.41;90.64;95450.94;4940887;29;20027;-72
2023/03/23 05:27:27;;;;;;;4.78;4.38;;;;;;;9.41;90.35;95454.41;4953333;29;20058;-72
2023/03/23 05:29:53;;;;;;;11.77;4.20;;;;;;;9.41;91.32;95451.78;4943949;29;20034;-73
2023/03/23 05:32:20;;;;;;;9.30;3.90;;;;;;;9.40;91.61;95447.50;4934611;29;20054;-72
2023/03/23 05:34:46;;;;;;;7.93;3.95;;;;;;;9.41;91.49;95453.56;4952361;29;20042;-73
2023/03/23 05:37:13;;;;;;;6.38;3.80;;;;;;;9.39;91.18;95451.06;4935712;29;20031;-72
2023/03/23 05:39:39;;;;;;;4.80;3.58;;;;;;;9.38;91.81;95453.84;4943069;28;20027;-73
2023/03/23 05:42:06;;;;;;;5.22;3.45;;;;;;;9.35;93.04;95460.19;4945592;29;20099;-72
2023/03/23 05:44:31;;;;;;;5.68;4.03;;;;;;;9.35;92.73;95457.56;4950783;29;20032;-73
2023/03/23 05:46:57;;;;;;;6.28;3.55;;;;;;;9.37;92.69;95462.69;4953550;29;20110;-72
2023/03/23 05:49:22;;;;;;;4.28;3.60;;;;;;;9.37;93.41;95462.69;4954274;28;20019;-73
2023/03/23 05:51:49;;;;;;;7.97;3.20;;;;;;;9.50;92.36;95465.84;4949508;29;20031;-73
2023/03/23 05:54:15;;;;;;;8.50;4.15;;;;;;;9.62;91.67;95470.94;4954741;29;20496;-73
2023/03/23 05:56:41;;;;;;;8.23;3.53;;;;;;;9.51;92.29;95462.28;4948341;29;20082;-73
2023/03/23 05:59:06;;;;;;;6.15;3.97;;;;;;;9.53;92.79;95472.63;4950006;29;20137;-73
2023/03/23 06:01:32;;;;;;;4.18;3.75;;;;;;;9.57;93.58;95474.00;4945699;29;20035;-73
2023/03/23 06:03:58;;;;;;;5.28;3.40;;;;;;;9.60;93.46;95465.81;4937085;29;20031;-72
2023/03/23 06:06:28;;;;;;;5.18;3.70;;;;;;;9.66;92.76;95467.91;4948174;29;20469;-72
2023/03/23 06:08:53;;;;;;;9.65;3.47;;;;;;;9.72;91.91;95463.84;4950100;29;20031;-72
2023/03/23 06:11:19;;;;;;;6.70;3.75;;;;;;;9.78;91.08;95462.47;4945421;29;20039;-72
2023/03/23 06:13:45;;;;;;;6.95;4.10;;;;;;;9.75;92.84;95467.03;4951785;29;20023;-72
2023/03/23 06:16:10;;;;;;;10.45;4.28;;;;;;;9.80;93.36;95465.78;4947363;28;20034;-72
2023/03/23 06:18:36;;;;;;;7.65;3.92;;;;;;;9.83;92.53;95462.88;4954473;29;20032;-73
2023/03/23 06:21:05;;;;;;;6.28;3.88;;;;;;;9.80;92.04;95464.00;4948239;29;20031;-73
2023/03/23 06:23:31;;;;;;;4.85;4.03;;;;;;;9.77;92.64;95468.69;4934560;29;20571;-73
2023/03/23 06:26:00;;;;;;;9.85;4.10;;;;;;;9.80;92.36;95471.03;4939531;29;20027;-72
2023/03/23 06:28:26;;;;;;;11.65;4.65;;;;;;;9.77;93.01;95468.69;4957648;29;20117;-72
2023/03/23 06:30:52;;;;;;;10.27;4.18;;;;;;;9.97;91.34;95478.19;4941828;29;20376;-73
2023/03/23 06:33:19;;;;;;;8.38;4.80;;;;;;;9.96;90.75;95483.63;4957405;29;20027;-73
2023/03/23 06:35:44;;;;;;;24.58;13.93;;;;;;;9.91;90.99;95484.03;4955527;29;20128;-73
2023/03/23 06:38:10;;;;;;;14.93;8.10;;;;;;;9.88;91.31;95490.41;4949601;29;20168;-72
2023/03/23 06:40:36;;;;;;;11.88;6.25;;;;;;;9.87;90.02;95487.94;4952836;29;20489;-73
2023/03/23 06:43:03;;;;;;;16.45;9.07;;;;;;;9.91;90.02;95489.28;4956086;29;20078;-72
2023/03/23 06:45:29;;;;;;;15.50;8.45;;;;;;;9.97;90.43;95486.09;4950588;29;20558;-72
2023/03/23 06:47:54;;;;;;;17.77;8.40;;;;;;;9.96;90.98;95484.44;4953236;29;20078;-70
2023/03/23 06:50:20;;;;;;;13.70;8.13;;;;;;;9.96;90.88;95494.94;4954093;29;20027;-73
2023/03/23 06:52:47;;;;;;;12.27;8.60;;;;;;;10.03;90.79;95495.22;4956483;29;20114;-71
2023/03/23 06:55:14;;;;;;;12.05;7.35;;;;;;;10.12;89.88;95493.53;4956385;29;20027;-70
2023/03/23 06:57:40;;;;;;;8.80;6.45;;;;;;;10.21;88.65;95490.00;4958483;29;20039;-71
2023/03/23 07:00:07;;;;;;;17.98;7.28;;;;;;;10.34;87.62;95496.75;4947298;29;20023;-71
2023/03/23 07:02:34;;;;;;;13.95;8.15;;;;;;;10.46;87.63;95493.81;4952970;29;20039;-73
2023/03/23 07:05:00;;;;;;;15.75;8.10;;;;;;;10.59;88.90;95493.47;4953029;29;20143;-76
2023/03/23 07:07:26;;;;;;;14.77;7.72;;;;;;;10.72;87.96;95492.28;4955451;29;20038;-72
2023/03/23 07:09:51;;;;;;;11.40;6.25;;;;;;;10.90;87.11;95494.97;4954881;29;20023;-73
2023/03/23 07:12:16;;;;;;;9.60;6.15;;;;;;;11.08;85.49;95500.25;4956294;28;20705;-72
2023/03/23 07:14:42;;;;;;;10.18;7.30;;;;;;;11.32;83.71;95486.47;4946763;29;20020;-71
2023/03/23 07:17:07;;;;;;;11.27;8.73;;;;;;;11.59;83.15;95489.13;4957606;29;20106;-71
2023/03/23 07:19:33;;;;;;;15.48;10.95;;;;;;;11.83;82.92;95487.69;4934370;29;20444;-71
2023/03/23 07:21:59;;;;;;;12.45;9.18;;;;;;;11.98;81.33;95482.66;4956614;29;20552;-70
2023/03/23 07:24:25;;;;;;;8.15;6.65;;;;;;;12.16;80.17;95490.53;4952293;29;20038;-71
2023/03/23 07:26:50;;;;;;;11.35;6.22;;;;;;;12.27;78.60;95484.16;4953737;29;20038;-71
2023/03/23 07:29:16;;;;;;;17.38;7.95;;;;;;;12.29;78.75;95490.94;4950011;28;20027;-71
2023/03/23 07:31:42;;;;;;;10.70;5.82;;;;;;;12.21;77.76;95477.69;4945668;29;20036;-71
2023/03/23 07:34:07;;;;;;;7.28;4.40;;;;;;;12.13;76.46;95485.56;4935093;29;20023;-70
2023/03/23 07:36:37;;;;;;;9.68;4.57;;;;;;;12.16;76.63;95486.09;4949072;29;20023;-71
2023/03/23 07:39:05;;;;;;;8.38;5.72;;;;;;;12.24;75.67;95477.38;4953289;29;20048;-71
2023/03/23 07:41:31;;;;;;;5.18;4.13;;;;;;;12.39;75.77;95484.69;4954364;29;20015;-71
2023/03/23 07:43:57;;;;;;;9.07;3.95;;;;;;;12.60;76.34;95477.19;4957491;29;20041;-71
2023/03/23 07:46:22;;;;;;;11.45;3.47;;;;;;;12.78;74.34;95475.44;4946393;29;20039;-71
2023/03/23 07:48:48;;;;;;;7.32;3.28;;;;;;;12.88;72.53;95473.50;4957126;29;20143;-71
2023/03/23 07:51:16;;;;;;;3.55;3.20;;;;;;;12.85;71.69;95487.84;4952132;29;20054;-70
2023/03/23 07:53:44;;;;;;;3.20;2.90;;;;;;;12.89;70.49;95496.28;4957008;29;20030;-72
2023/03/23 07:56:14;;;;;;;5.90;3.75;;;;;;;12.74;69.57;95496.06;4957577;29;20019;-71
2023/03/23 07:58:40;;;;;;;4.53;4.13;;;;;;;12.71;69.97;95504.28;4951958;29;20023;-71
2023/03/23 08:01:07;;;;;;;8.88;3.90;;;;;;;13.10;68.27;95501.09;4945023;29;20028;-71
2023/03/23 08:03:32;;;;;;;3.83;3.50;;;;;;;13.15;67.27;95505.91;4947045;29;20023;-73
2023/03/23 08:05:59;;;;;;;7.65;3.80;;;;;;;12.82;68.59;95501.38;4956493;29;20074;-73
2023/03/23 08:08:25;;;;;;;4.80;3.80;;;;;;;12.77;68.36;95500.19;4929046;29;20020;-72
2023/03/23 08:10:50;;;;;;;3.33;3.03;;;;;;;12.78;66.81;95510.59;4949981;29;20388;-74
2023/03/23 08:13:16;;;;;;;4.40;3.70;;;;;;;12.63;67.38;95517.47;4948513;29;20031;-73
2023/03/23 08:15:41;;;;;;;7.45;3.65;;;;;;;12.70;66.90;95523.75;4951495;29;20019;-73
2023/03/23 08:18:07;;;;;;;8.77;3.72;;;;;;;12.84;66.66;95515.25;4953355;29;20549;-73
2023/03/23 08:20:33;;;;;;;4.88;3.63;;;;;;;12.83;68.33;95518.06;4955379;29;20019;-74
2023/03/23 08:22:59;;;;;;;8.38;4.20;;;;;;;12.90;68.39;95527.81;4948431;28;21013;-73
2023/03/23 08:25:25;;;;;;;5.30;3.40;;;;;;;12.94;66.36;95519.59;4953735;29;20046;-74
2023/03/23 08:27:52;;;;;;;4.78;3.60;;;;;;;12.98;65.96;95526.19;4951403;29;20027;-73
2023/03/23 08:30:19;;;;;;;4.07;3.65;;;;;;;13.02;65.66;95524.88;4963447;28;20389;-74
2023/03/23 08:32:47;;;;;;;9.43;4.18;;;;;;;13.15;67.81;95519.13;4953264;29;20027;-73
2023/03/23 08:35:15;;;;;;;4.15;3.22;;;;;;;13.01;68.87;95515.28;4948107;29;20526;-73
2023/03/23 08:37:44;;;;;;;4.88;3.40;;;;;;;13.06;69.13;95512.19;4945986;29;20074;-73
2023/03/23 08:40:13;;;;;;;6.03;3.20;;;;;;;13.06;69.06;95504.25;4951290;28;20442;-73
2023/03/23 08:42:40;;;;;;;6.13;2.95;;;;;;;13.16;69.21;95503.13;4949782;29;20419;-73
2023/03/23 08:45:08;;;;;;;3.17;2.88;;;;;;;13.29;67.59;95504.44;4960223;28;20016;-73
2023/03/23 08:47:35;;;;;;;3.28;2.72;;;;;;;13.48;66.49;95505.16;4954376;29;20071;-73
2023/03/23 08:50:01;;;;;;;3.45;3.00;;;;;;;13.92;64.98;95504.81;4954915;29;20066;-73
2023/03/23 08:52:28;;;;;;;5.72;2.88;;;;;;;14.48;64.13;95509.31;4955838;29;20415;-73
2023/03/23 08:54:54;;;;;;;9.73;3.50;;;;;;;14.94;61.36;95513.94;4943116;29;20074;-73
2023/03/23 08:57:19;;;;;;;4.43;3.13;;;;;;;15.33;59.74;95506.91;4937600;29;20024;-74
2023/03/23 08:59:45;;;;;;;4.65;3.15;;;;;;;15.32;57.77;95518.53;4954642;29;20418;-73
2023/03/23 09:02:14;;;;;;;4.32;2.72;;;;;;;15.30;58.00;95517.88;4945731;29;20114;-73
2023/03/23 09:04:42;;;;;;;4.93;3.08;;;;;;;15.04;56.96;95521.69;4944887;28;20055;-73
2023/03/23 09:07:09;;;;;;;2.90;2.55;;;;;;;15.08;53.93;95527.47;4946827;29;20019;-74
2023/03/23 09:09:35;;;;;;;3.65;2.45;;;;;;;14.92;54.63;95533.66;4955919;28;20055;-73
2023/03/23 09:12:00;;;;;;;5.03;2.60;;;;;;;14.93;53.35;95524.75;4951747;29;20476;-72
2023/03/23 09:14:26;;;;;;;3.70;2.80;;;;;;;14.80;54.23;95535.88;4952968;29;20022;-73
2023/03/23 09:16:52;;;;;;;2.40;2.20;;;;;;;14.76;53.84;95532.75;4948982;29;20020;-74
2023/03/23 09:19:18;;;;;;;4.88;2.80;;;;;;;14.81;54.38;95527.75;4925236;28;20031;-73
2023/03/23 09:21:45;;;;;;;4.30;2.42;;;;;;;14.77;53.96;95536.22;4955821;29;20082;-73
2023/03/23 09:24:10;;;;;;;2.60;2.40;;;;;;;14.82;55.37;95540.00;4943469;29;20110;-73
2023/03/23 09:26:36;;;;;;;3.40;2.80;;;;;;;15.03;55.79;95546.53;4948660;29;20099;-72
2023/03/23 09:29:01;;;;;;;3.10;2.80;;;;;;;14.99;55.78;95550.53;4932567;29;20503;-73
2023/03/23 09:31:27;;;;;;;4.93;2.85;;;;;;;14.86;57.53;95546.59;4943591;29;20023;-72
2023/03/23 09:33:55;;;;;;;5.82;2.50;;;;;;;14.68;55.82;95557.44;4946786;29;20036;-72
2023/03/23 09:36:21;;;;;;;2.60;2.40;;;;;;;14.52;57.02;95558.31;4942219;29;20704;-73
2023/03/23 09:38:48;;;;;;;4.05;2.30;;;;;;;14.39;56.89;95563.28;4948200;29;20031;-73
2023/03/23 09:41:25;;;;;;;8.63;3.10;;;;;;;14.40;56.84;95570.25;4938350;29;20039;-72
2023/03/23 09:44:12;;;;;;;3.03;2.72;;;;;;;14.49;56.55;95571.91;4946192;29;20109;-73
2023/03/23 09:46:46;;;;;;;2.75;2.55;;;;;;;14.49;56.12;95571.06;4954613;29;20043;-72
2023/03/23 09:49:21;;;;;;;8.27;2.47;;;;;;;14.58;54.79;95570.88;4952707;29;20083;-73
2023/03/23 09:51:56;;;;;;;3.70;2.83;;;;;;;14.68;55.62;95564.53;4953087;28;20031;-72
2023/03/23 09:54:36;;;;;;;;;;;;;;;14.99;54.84;95553.19;4954536;29;20079;-73
2023/03/23 09:57:03;;;;;;;3.58;2.58;;;;;;;15.34;53.01;95561.59;4952550;28;19914;-74
2023/03/23 09:59:44;;;;;;;2.65;2.45;;;;;;;15.67;51.61;95552.59;4948333;29;20051;-74
2023/03/23 10:02:19;;;;;;;2.95;2.75;;;;;;;15.99;51.10;95562.16;4953702;29;20027;-73
2023/03/23 10:04:50;;;;;;;3.85;3.03;;;;;;;16.21;51.83;95566.81;4936623;29;20031;-74
2023/03/23 10:07:21;;;;;;;6.00;2.75;;;;;;;16.02;50.25;95556.50;4941175;29;20042;-71
2023/03/23 10:09:50;;;;;;;3.05;2.60;;;;;;;15.85;50.95;95554.97;4956477;29;20114;-73
2023/03/23 10:12:36;;;;;;;3.25;2.95;;;;;;;16.12;49.90;95555.44;4941386;29;20023;-74
2023/03/23 10:15:14;;;;;;;3.08;2.88;;;;;;;15.75;50.27;95563.19;4958142;29;20098;-75
2023/03/23 10:18:08;;;;;;;12.05;3.10;;;;;;;15.70;51.31;95561.06;4958219;29;20035;-73
2023/03/23 10:20:41;;;;;;;5.47;2.80;;;;;;;16.08;50.88;95554.16;4949870;29;20106;-73
2023/03/23 10:23:42;;;;;;;4.68;2.53;;;;;;;16.25;49.74;95550.34;4947905;28;20023;-73
2023/03/23 10:26:26;;;;;;;3.33;2.80;;;;;;;16.38;49.21;95548.88;4944008;29;20027;-73
2023/03/23 10:29:17;;;;;;;2.95;2.75;;;;;;;16.63;46.92;95545.97;4949718;28;20047;-73
2023/03/23 10:31:55;;;;;;;9.88;3.00;;;;;;;16.16;48.30;95551.41;4944498;29;20121;-74
2023/03/23 10:34:28;;;;;;;4.18;2.85;;;;;;;16.17;47.81;95551.25;4953298;29;20030;-74
2023/03/23 10:37:17;;;;;;;2.85;2.65;;;;;;;16.20;48.70;95546.56;4946055;29;20027;-73
2023/03/23 10:39:52;;;;;;;5.93;3.28;;;;;;;16.54;48.55;95538.09;4952749;29;20554;-74
2023/03/23 10:42:33;;;;;;;4.95;3.83;;;;;;;16.23;49.61;95539.06;4953304;29;20027;-74
2023/03/23 10:45:18;;;;;;;5.95;5.00;;;;;;;15.90;51.36;95536.72;4952285;29;20118;-73
2023/03/23 10:47:49;;;;;;;4.72;4.15;;;;;;;15.83;52.24;95533.09;4953875;29;20048;-73
2023/03/23 10:50:17;;;;;;;4.90;4.43;;;;;;;16.13;52.33;95528.69;4956739;29;20405;-73
2023/03/23 10:52:44;;;;;;;6.35;4.97;;;;;;;16.45;52.36;95517.91;4952449;29;20733;-73
2023/03/23 10:55:14;;;;;;;5.15;4.65;;;;;;;16.67;52.56;95523.31;4954035;28;20807;-74
2023/03/23 10:57:45;;;;;;;5.40;4.85;;;;;;;16.65;52.54;95518.19;4953975;29;20027;-74
2023/03/23 11:00:13;;;;;;;5.03;4.60;;;;;;;16.62;52.95;95515.91;4950423;29;20468;-74
2023/03/23 11:02:43;;;;;;;9.07;5.50;;;;;;;16.76;52.11;95515.06;4947793;28;20031;-74
2023/03/23 11:05:24;;;;;;;8.40;4.90;;;;;;;16.64;51.86;95511.25;4951495;29;20038;-73
2023/03/23 11:07:57;;;;;;;7.32;6.68;;;;;;;16.47;52.84;95505.28;4956294;29;20110;-73
2023/03/23 11:10:37;;;;;;;9.38;7.60;;;;;;;16.60;51.39;95521.41;4958473;29;20046;-74
2023/03/23 11:13:04;;;;;;;12.55;8.88;;;;;;;16.91;51.76;95530.19;4946146;29;20023;-74
2023/03/23 11:15:35;;;;;;;9.73;8.40;;;;;;;16.83;52.93;95525.78;4950208;29;20035;-75
2023/03/23 11:18:07;;;;;;;10.75;6.55;;;;;;;16.78;53.20;95524.69;4949313;29;20070;-73
2023/03/23 11:20:39;;;;;;;7.03;5.57;;;;;;;16.87;52.34;95510.28;4923443;29;20114;-73
2023/03/23 11:23:26;;;;;;;6.55;4.78;;;;;;;17.10;53.28;95509.38;4950712;29;20090;-73
2023/03/23 11:26:16;;;;;;;7.43;4.68;;;;;;;17.44;52.48;95527.31;4948721;28;20091;-74
2023/03/23 11:28:49;;;;;;;7.15;5.28;;;;;;;17.54;53.15;95520.84;4943746;29;20039;-74
2023/03/23 11:31:16;;;;;;;6.40;4.20;;;;;;;18.20;50.20;95519.81;4954535;29;20581;-73
2023/03/23 11:33:53;;;;;;;8.35;5.03;;;;;;;18.61;47.58;95523.56;4949525;29;20038;-74
2023/03/23 11:36:19;;;;;;;5.38;3.60;;;;;;;18.61;46.46;95529.69;4953122;29;20043;-74
2023/03/23 11:38:45;;;;;;;6.53;3.45;;;;;;;18.67;45.67;95524.59;4947698;29;20403;-71
2023/03/23 11:41:12;;;;;;;7.57;3.22;;;;;;;18.50;46.43;95534.75;4949331;29;20038;-75
2023/03/23 11:43:45;;;;;;;3.88;2.85;;;;;;;18.47;45.38;95533.31;4945925;29;20544;-75
2023/03/23 11:46:29;;;;;;;4.10;2.65;;;;;;;18.93;43.76;95525.78;4947846;29;20469;-75